KOFK/OFK METAR and TAF weather

Enter ICAO airport designator
Station Type Date Time Source
KOFK METAR 2021/09/24 02:56 UTC NOAA

KOFK 240256Z AUTO 14004KT 10SM CLR 16/08 A2989 RMK AO2 SLP117 T01610083 51003


Station Type Date Time Source
KOFK Decoded METAR 2021/09/24 02:56 UTC NOAA

KARL STEFAN MEMORIAL AIRPORT, NE, United States (KOFK) 41-59N 097-26W 470M
Sep 23, 2021 - 10:56 PM EDT / 2021.09.24 0256 UTC
Wind: from the SE (140 degrees) at 5 MPH (4 KT):0
Visibility: 10 mile(s):0
Sky conditions: clear
Temperature: 61.0 F (16.1 C)
Dew Point: 46.9 F (8.3 C)
Relative Humidity: 59%
Pressure (altimeter): 29.89 in. Hg (1012 hPa)
Pressure tendency: 0.01 inches (0.3 hPa) higher than three hours ago
ob: KOFK 240256Z AUTO 14004KT 10SM CLR 16/08 A2989 RMK AO2 SLP117 T01610083 51003
cycle: 3

Station Type Date Time Source
KOFK TAF 2021/09/23 18:22 UTC NOAA

TAF KOFK 231720Z 2318/2418 18014G21KT P6SM FEW250
FM240000 16007KT P6SM SKC
FM241200 34012KT P6SM OVC250

Example: see airport list